Time;durP1;ratioP1;P1;durP2;ratioP2;P2;SDS_P1;SDS_P2;PMS_P1;PMS_P2;Temp;Humidity;BMP_temperature;BMP_pressure;BME280_temperature;BME280_humidity;BME280_pressure;Samples;Min_cycle;Max_cycle;Signal;HPM_P1;HPM_P2
2023/12/27 00:02:12;;;;;;;5.72;1.83;;;15.90;84.10;;;;;;4147031;28;20190;-56
2023/12/27 00:04:53;;;;;;;6.68;2.53;;;15.90;83.80;;;;;;4170454;28;20126;-56
2023/12/27 00:07:35;;;;;;;7.90;1.80;;;16.00;83.60;;;;;;4187142;28;20614;-55
2023/12/27 00:10:16;;;;;;;7.63;2.65;;;16.00;83.40;;;;;;4173285;28;20063;-56
2023/12/27 00:12:57;;;;;;;6.60;1.80;;;16.00;83.20;;;;;;4174158;28;20098;-56
2023/12/27 00:15:43;;;;;;;5.63;1.88;;;16.00;83.20;;;;;;4166319;28;20071;-52
2023/12/27 00:18:24;;;;;;;10.32;2.47;;;16.00;83.50;;;;;;4170308;28;20055;-55
2023/12/27 00:21:05;;;;;;;10.40;2.10;;;16.00;83.50;;;;;;4169282;28;20749;-54
2023/12/27 00:23:48;;;;;;;6.38;2.20;;;16.00;83.30;;;;;;4166535;28;20192;-55
2023/12/27 00:26:28;;;;;;;5.60;1.73;;;16.00;83.10;;;;;;4184762;28;20669;-55
2023/12/27 00:29:12;;;;;;;9.93;2.30;;;16.00;83.10;;;;;;4179756;28;20047;-54
2023/12/27 00:31:53;;;;;;;3.83;1.60;;;16.00;83.20;;;;;;4171844;28;20052;-56
2023/12/27 00:34:34;;;;;;;7.60;2.17;;;16.00;83.00;;;;;;4180291;28;20514;-52
2023/12/27 00:37:15;;;;;;;3.67;1.85;;;16.00;83.10;;;;;;4185555;28;20048;-56
2023/12/27 00:39:58;;;;;;;5.60;1.63;;;16.00;83.20;;;;;;4170150;28;20060;-53
2023/12/27 00:42:39;;;;;;;6.07;1.60;;;16.00;83.10;;;;;;4197543;28;20109;-56
2023/12/27 00:45:20;;;;;;;4.50;1.65;;;16.10;82.90;;;;;;4181846;28;20084;-55
2023/12/27 00:48:01;;;;;;;6.30;2.08;;;16.20;82.60;;;;;;4166434;28;20047;-55
2023/12/27 00:50:42;;;;;;;5.32;1.80;;;16.20;82.30;;;;;;4169804;28;20059;-51
2023/12/27 00:53:23;;;;;;;6.80;1.70;;;16.20;82.10;;;;;;4169774;28;20611;-55
2023/12/27 00:56:07;;;;;;;3.90;1.40;;;16.20;82.00;;;;;;4170394;28;20056;-55
2023/12/27 00:58:48;;;;;;;8.27;1.90;;;16.20;82.30;;;;;;4168939;28;20056;-55
2023/12/27 01:01:30;;;;;;;4.07;1.58;;;16.20;82.30;;;;;;4185543;28;20055;-55
2023/12/27 01:04:11;;;;;;;6.20;2.42;;;16.10;83.00;;;;;;4185614;28;20101;-55
2023/12/27 01:06:52;;;;;;;3.42;2.10;;;16.10;82.20;;;;;;4186839;28;20059;-55
2023/12/27 01:09:33;;;;;;;5.22;2.15;;;16.10;82.40;;;;;;4186213;28;20185;-56
2023/12/27 01:12:16;;;;;;;5.95;1.60;;;16.00;82.60;;;;;;4163438;28;20063;-55
2023/12/27 01:14:57;;;;;;;6.65;3.00;;;16.00;82.90;;;;;;4173368;28;20059;-56
2023/12/27 01:17:38;;;;;;;8.30;1.55;;;15.90;83.10;;;;;;4161916;28;20053;-56
2023/12/27 01:20:20;;;;;;;4.68;1.42;;;16.00;83.00;;;;;;4157728;28;20102;-53
2023/12/27 01:23:01;;;;;;;6.90;2.10;;;16.00;82.80;;;;;;4169963;28;20090;-56
2023/12/27 01:25:42;;;;;;;3.33;1.40;;;16.10;83.70;;;;;;4186819;28;20106;-55
2023/12/27 01:28:24;;;;;;;6.47;1.65;;;16.10;82.60;;;;;;4187845;28;20121;-55
2023/12/27 01:31:05;;;;;;;7.95;1.95;;;16.10;82.50;;;;;;4187658;28;20055;-52
2023/12/27 01:33:46;;;;;;;9.43;2.22;;;16.10;82.40;;;;;;4188063;28;20129;-56
2023/12/27 01:36:27;;;;;;;3.53;1.58;;;16.10;82.50;;;;;;4188707;28;20047;-53
2023/12/27 01:39:09;;;;;;;3.30;1.67;;;16.10;82.60;;;;;;4188702;28;20415;-54
2023/12/27 01:41:49;;;;;;;5.32;1.80;;;16.10;82.40;;;;;;4188991;28;20878;-55
2023/12/27 01:44:32;;;;;;;7.53;2.08;;;16.10;82.30;;;;;;4173128;28;20102;-55
2023/12/27 01:47:13;;;;;;;6.85;1.90;;;16.10;82.30;;;;;;4188645;28;20063;-54
2023/12/27 01:49:56;;;;;;;6.13;1.70;;;16.10;82.20;;;;;;4184152;28;20102;-56
2023/12/27 01:52:37;;;;;;;4.15;1.60;;;16.10;83.00;;;;;;4188190;28;20407;-56
2023/12/27 01:55:18;;;;;;;;;;;16.10;82.10;;;;;;4187260;28;20098;-54
2023/12/27 01:58:00;;;;;;;7.15;1.70;;;16.10;82.40;;;;;;4188929;28;19927;-55
2023/12/27 02:00:44;;;;;;;5.45;1.30;;;16.10;82.70;;;;;;4170712;28;20134;-54
2023/12/27 02:03:25;;;;;;;4.35;1.65;;;16.10;82.50;;;;;;4187242;28;20056;-54
2023/12/27 02:06:07;;;;;;;5.55;1.60;;;16.10;82.30;;;;;;4175930;28;20412;-55
2023/12/27 02:08:48;;;;;;;6.72;1.98;;;16.10;82.20;;;;;;4167152;28;20052;-53
2023/12/27 02:11:31;;;;;;;5.13;1.80;;;16.00;82.30;;;;;;4165362;28;20103;-55
2023/12/27 02:14:12;;;;;;;8.13;1.85;;;16.00;82.40;;;;;;4154646;28;20048;-54
2023/12/27 02:16:55;;;;;;;6.63;1.92;;;16.10;83.30;;;;;;4154293;28;20056;-55
2023/12/27 02:19:36;;;;;;;10.70;1.77;;;16.10;82.50;;;;;;4171199;28;20904;-55
2023/12/27 02:22:20;;;;;;;6.57;2.05;;;16.00;82.40;;;;;;4163758;28;20102;-54
2023/12/27 02:25:02;;;;;;;3.20;1.65;;;16.00;82.70;;;;;;4170358;28;20051;-56
2023/12/27 02:27:44;;;;;;;4.20;1.50;;;16.00;82.90;;;;;;4188478;28;20078;-55
2023/12/27 02:30:25;;;;;;;8.40;2.08;;;16.00;82.80;;;;;;4188198;28;20138;-53
2023/12/27 02:33:06;;;;;;;5.75;1.30;;;16.10;82.50;;;;;;4171516;28;20055;-56
2023/12/27 02:35:48;;;;;;;7.75;2.15;;;16.10;82.30;;;;;;4169730;28;20158;-54
2023/12/27 02:38:29;;;;;;;4.20;1.48;;;16.10;82.20;;;;;;4154146;28;20507;-54
2023/12/27 02:41:11;;;;;;;2.75;1.38;;;16.20;82.10;;;;;;4171289;28;20059;-54
2023/12/27 02:43:52;;;;;;;6.63;1.92;;;16.20;81.90;;;;;;4170450;28;20056;-53
2023/12/27 02:46:33;;;;;;;2.45;1.42;;;16.30;81.60;;;;;;4170606;28;20553;-56
2023/12/27 02:49:14;;;;;;;7.30;1.88;;;16.30;81.50;;;;;;4163127;28;20068;-55
2023/12/27 02:51:55;;;;;;;4.75;1.60;;;16.30;81.30;;;;;;4160340;28;20186;-55
2023/12/27 02:54:36;;;;;;;4.43;1.50;;;16.40;81.30;;;;;;4183956;28;20070;-53
2023/12/27 02:57:18;;;;;;;4.75;1.35;;;16.30;81.00;;;;;;4187641;28;20082;-56
2023/12/27 02:59:59;;;;;;;4.05;1.58;;;16.30;81.00;;;;;;4187907;28;20174;-52
2023/12/27 03:02:42;;;;;;;3.30;1.70;;;16.20;80.90;;;;;;4165315;28;20071;-55
2023/12/27 03:05:24;;;;;;;4.70;1.30;;;16.20;80.90;;;;;;4170570;28;20072;-55
2023/12/27 03:08:05;;;;;;;4.32;1.30;;;16.20;81.10;;;;;;4166877;28;20068;-52
2023/12/27 03:10:46;;;;;;;4.25;1.63;;;16.10;81.00;;;;;;4156007;28;20060;-55
2023/12/27 03:13:28;;;;;;;5.50;1.58;;;16.10;81.20;;;;;;4170338;28;20154;-53
2023/12/27 03:16:09;;;;;;;5.38;1.30;;;16.00;81.40;;;;;;4185905;28;20404;-56
2023/12/27 03:18:50;;;;;;;5.22;1.48;;;15.90;81.60;;;;;;4171112;28;20097;-55
2023/12/27 03:21:32;;;;;;;2.58;1.25;;;15.90;81.90;;;;;;4153374;28;20389;-57
2023/12/27 03:24:15;;;;;;;9.60;1.98;;;15.80;82.20;;;;;;4183642;28;20130;-57
2023/12/27 03:26:57;;;;;;;4.03;1.40;;;15.90;82.40;;;;;;4170944;28;20048;-56
2023/12/27 03:29:39;;;;;;;6.80;1.40;;;15.90;82.10;;;;;;4186502;28;20043;-56
2023/12/27 03:32:22;;;;;;;2.70;1.67;;;15.90;81.80;;;;;;4186032;28;20078;-55
2023/12/27 03:35:03;;;;;;;2.75;1.33;;;15.90;81.60;;;;;;4153813;28;20052;-55
2023/12/27 03:37:45;;;;;;;2.90;1.30;;;15.90;81.90;;;;;;4174904;28;20169;-57
2023/12/27 03:40:26;;;;;;;2.17;1.27;;;15.90;81.80;;;;;;4186147;28;20117;-56
2023/12/27 03:43:07;;;;;;;4.43;1.60;;;15.90;82.00;;;;;;4187238;28;20125;-55
2023/12/27 03:45:50;;;;;;;3.22;1.23;;;15.80;82.20;;;;;;4187442;28;20060;-52
2023/12/27 03:48:32;;;;;;;3.65;1.50;;;15.90;82.30;;;;;;4176425;28;20128;-55
2023/12/27 03:51:13;;;;;;;5.50;1.90;;;15.90;82.10;;;;;;4156940;28;20179;-53
2023/12/27 03:53:54;;;;;;;4.85;2.00;;;15.90;82.10;;;;;;4187523;28;20059;-54
2023/12/27 03:56:35;;;;;;;4.80;1.35;;;15.90;82.10;;;;;;4185960;28;20059;-56
2023/12/27 03:59:16;;;;;;;;;;;16.00;82.00;;;;;;4187519;28;20067;-54
2023/12/27 04:01:58;;;;;;;4.65;1.67;;;16.00;81.80;;;;;;4178643;28;19935;-54
2023/12/27 04:04:40;;;;;;;4.60;1.50;;;16.00;81.80;;;;;;4170493;28;20059;-54
2023/12/27 04:07:21;;;;;;;6.25;1.38;;;16.00;82.50;;;;;;4156752;28;20060;-54
2023/12/27 04:10:03;;;;;;;6.00;1.38;;;16.00;81.70;;;;;;4162222;28;20508;-55
2023/12/27 04:12:44;;;;;;;7.22;2.00;;;15.90;81.90;;;;;;4181640;28;20093;-54
2023/12/27 04:15:25;;;;;;;3.20;1.50;;;15.80;81.80;;;;;;4185612;28;20103;-54
2023/12/27 04:18:11;;;;;;;4.57;1.40;;;15.80;82.10;;;;;;4186597;28;20056;-56
2023/12/27 04:20:52;;;;;;;7.07;1.90;;;15.80;82.40;;;;;;4186602;28;20101;-57
2023/12/27 04:23:33;;;;;;;2.28;1.58;;;15.90;82.50;;;;;;4175719;28;20083;-57
2023/12/27 04:26:14;;;;;;;8.60;2.38;;;16.00;82.10;;;;;;4186882;28;20511;-56
2023/12/27 04:28:55;;;;;;;5.18;1.52;;;16.00;81.70;;;;;;4187318;28;20052;-56
2023/12/27 04:31:37;;;;;;;8.40;2.40;;;16.20;82.50;;;;;;4186336;28;20056;-57
2023/12/27 04:34:20;;;;;;;3.63;1.70;;;16.30;81.10;;;;;;4182131;28;20060;-56
2023/12/27 04:37:02;;;;;;;3.08;1.52;;;16.40;80.80;;;;;;4187363;28;20101;-56
2023/12/27 04:39:45;;;;;;;4.85;2.13;;;16.40;80.30;;;;;;4181102;28;20494;-57
2023/12/27 04:42:26;;;;;;;3.83;1.70;;;16.50;80.00;;;;;;4174199;28;20043;-57
2023/12/27 04:45:08;;;;;;;4.65;1.63;;;16.50;80.00;;;;;;4187317;28;20055;-56
2023/12/27 04:47:49;;;;;;;4.25;1.63;;;16.50;80.00;;;;;;4188788;28;20059;-55
2023/12/27 04:50:31;;;;;;;5.60;2.10;;;16.50;80.10;;;;;;4173929;28;20043;-56
2023/12/27 04:53:12;;;;;;;6.00;2.28;;;16.50;79.90;;;;;;4183582;28;20047;-55
2023/12/27 04:55:52;;;;;;;5.07;1.80;;;16.60;79.30;;;;;;4189995;28;20059;-55
2023/12/27 04:58:35;;;;;;;5.40;1.73;;;16.60;79.20;;;;;;4181663;28;20056;-56
2023/12/27 05:01:17;;;;;;;6.25;1.77;;;16.60;78.90;;;;;;4172620;28;20056;-56
2023/12/27 05:03:58;;;;;;;5.03;1.90;;;16.60;78.80;;;;;;4188550;28;20060;-56
2023/12/27 05:06:40;;;;;;;5.65;1.67;;;16.50;78.90;;;;;;4187018;28;20051;-55
2023/12/27 05:09:21;;;;;;;5.63;1.98;;;16.50;79.10;;;;;;4174499;28;20059;-56
2023/12/27 05:12:03;;;;;;;5.10;1.52;;;16.40;79.00;;;;;;4189932;28;20101;-57
2023/12/27 05:14:45;;;;;;;5.13;2.13;;;16.40;78.90;;;;;;4184999;28;20063;-56
2023/12/27 05:17:26;;;;;;;4.43;1.98;;;16.40;79.00;;;;;;4176710;28;20051;-54
2023/12/27 05:20:08;;;;;;;5.97;2.07;;;16.40;80.00;;;;;;4190000;28;20048;-56
2023/12/27 05:22:50;;;;;;;7.25;1.60;;;16.40;79.40;;;;;;4187611;28;20071;-55
2023/12/27 05:25:31;;;;;;;3.75;1.63;;;16.40;79.30;;;;;;4188867;28;20059;-55
2023/12/27 05:28:12;;;;;;;7.53;2.03;;;16.50;79.10;;;;;;4188730;28;20101;-55
2023/12/27 05:30:54;;;;;;;7.32;2.00;;;16.50;78.90;;;;;;4189128;28;20059;-54
2023/12/27 05:33:34;;;;;;;4.73;1.70;;;16.50;78.70;;;;;;4182274;28;20075;-56
2023/12/27 05:36:15;;;;;;;5.05;1.60;;;16.60;78.70;;;;;;4189355;28;20298;-56
2023/12/27 05:38:58;;;;;;;7.45;1.60;;;16.60;78.70;;;;;;4189490;28;20106;-55
2023/12/27 05:41:39;;;;;;;5.40;1.58;;;16.60;78.60;;;;;;4189083;28;20056;-52
2023/12/27 05:44:20;;;;;;;4.25;1.77;;;16.50;78.50;;;;;;4189340;28;20190;-55
2023/12/27 05:47:01;;;;;;;4.45;1.58;;;16.50;78.90;;;;;;4173823;28;20102;-57
2023/12/27 05:49:42;;;;;;;8.68;1.88;;;16.50;79.30;;;;;;4172947;28;20089;-56
2023/12/27 05:52:23;;;;;;;4.18;1.90;;;16.50;79.30;;;;;;4189096;28;20059;-56
2023/12/27 05:55:07;;;;;;;4.00;2.08;;;16.40;79.30;;;;;;4172110;28;20064;-55
2023/12/27 05:57:48;;;;;;;9.45;2.13;;;16.40;79.20;;;;;;4172682;28;20573;-56
2023/12/27 06:00:29;;;;;;;8.35;2.20;;;16.40;79.30;;;;;;4178959;28;20175;-55
2023/12/27 06:03:11;;;;;;;4.22;1.90;;;16.30;79.50;;;;;;4189372;28;20060;-56
2023/12/27 06:05:51;;;;;;;5.35;2.15;;;16.20;79.60;;;;;;4189347;28;20051;-55
2023/12/27 06:08:32;;;;;;;5.70;1.90;;;16.10;79.90;;;;;;4189221;28;20093;-55
2023/12/27 06:11:15;;;;;;;6.60;2.05;;;16.00;80.50;;;;;;4175617;28;20068;-54
2023/12/27 06:13:55;;;;;;;5.47;2.10;;;16.00;80.80;;;;;;4173418;28;20047;-56
2023/12/27 06:16:37;;;;;;;5.32;2.35;;;16.10;81.20;;;;;;4187407;28;20470;-57
2023/12/27 06:19:17;;;;;;;7.63;2.17;;;16.20;81.80;;;;;;4178888;28;20142;-55
2023/12/27 06:21:58;;;;;;;7.30;2.50;;;16.30;81.40;;;;;;4182306;28;20052;-55
2023/12/27 06:24:40;;;;;;;6.35;2.38;;;16.40;80.00;;;;;;4172602;28;20044;-56
2023/12/27 06:27:22;;;;;;;5.93;2.35;;;16.50;79.50;;;;;;4185532;28;20399;-57
2023/12/27 06:30:03;;;;;;;5.68;2.35;;;16.50;79.40;;;;;;4155424;28;20061;-56
2023/12/27 06:32:44;;;;;;;;;;;16.50;79.50;;;;;;4155794;28;20049;-56
2023/12/27 06:35:25;;;;;;;6.32;2.20;;;16.60;79.50;;;;;;4186854;28;19966;-55
2023/12/27 06:38:06;;;;;;;3.70;2.10;;;16.60;79.10;;;;;;4170353;28;20059;-45
2023/12/27 06:40:47;;;;;;;3.95;2.05;;;16.60;78.80;;;;;;4173419;28;20450;-44
2023/12/27 06:43:30;;;;;;;4.40;2.67;;;16.60;79.10;;;;;;4172173;28;20589;-45
2023/12/27 06:46:13;;;;;;;5.05;2.47;;;16.60;78.60;;;;;;4175594;28;20047;-46
2023/12/27 06:48:55;;;;;;;5.68;2.50;;;16.60;76.90;;;;;;4188437;28;20135;-47
2023/12/27 06:51:36;;;;;;;4.80;2.60;;;16.60;77.70;;;;;;4186166;28;20178;-48
2023/12/27 06:54:16;;;;;;;8.18;2.90;;;16.60;78.10;;;;;;4190616;28;20790;-48
2023/12/27 06:56:59;;;;;;;7.30;2.40;;;16.50;78.20;;;;;;4186431;28;20059;-44
2023/12/27 06:59:41;;;;;;;5.57;2.58;;;16.40;78.30;;;;;;4156511;28;20049;-45
2023/12/27 07:02:22;;;;;;;6.93;2.97;;;16.30;78.60;;;;;;4181285;28;20066;-44
2023/12/27 07:05:06;;;;;;;3.78;2.40;;;16.20;79.00;;;;;;4186755;28;20043;-44
2023/12/27 07:07:47;;;;;;;6.65;2.55;;;16.30;79.50;;;;;;4184306;28;20478;-46
2023/12/27 07:10:28;;;;;;;5.22;2.25;;;16.30;79.50;;;;;;4162986;28;20102;-43
2023/12/27 07:13:09;;;;;;;8.35;3.05;;;16.30;79.30;;;;;;4183023;28;20075;-45
2023/12/27 07:15:51;;;;;;;5.20;2.72;;;16.40;79.10;;;;;;4186810;28;20137;-44
2023/12/27 07:18:32;;;;;;;6.90;2.53;;;16.50;78.80;;;;;;4174777;28;20051;-49
2023/12/27 07:21:13;;;;;;;;;;;16.50;78.80;;;;;;4172840;28;20063;-46
2023/12/27 07:23:54;;;;;;;11.95;3.22;;;16.50;78.70;;;;;;4187219;28;20054;-44
2023/12/27 07:26:35;;;;;;;8.57;2.70;;;16.60;78.50;;;;;;4188088;28;20194;-43
2023/12/27 07:29:16;;;;;;;3.72;1.85;;;16.60;78.00;;;;;;4187958;28;20055;-47
2023/12/27 07:31:58;;;;;;;6.28;2.22;;;16.60;77.70;;;;;;4164727;28;20056;-47
2023/12/27 07:34:41;;;;;;;7.28;3.17;;;16.60;77.70;;;;;;4170590;28;20126;-48
2023/12/27 07:37:22;;;;;;;5.43;2.92;;;16.60;77.50;;;;;;4170580;28;20068;-43
2023/12/27 07:40:03;;;;;;;6.57;2.22;;;16.60;77.10;;;;;;4170585;28;20056;-46
2023/12/27 07:42:44;;;;;;;8.48;2.75;;;16.60;77.10;;;;;;4171351;28;20141;-46
2023/12/27 07:45:25;;;;;;;4.20;2.20;;;16.60;77.10;;;;;;4177322;28;20572;-49
2023/12/27 07:48:08;;;;;;;7.55;2.53;;;16.50;76.80;;;;;;4171244;28;20052;-43
2023/12/27 07:50:50;;;;;;;4.55;2.20;;;16.50;76.10;;;;;;4171250;28;20100;-45
2023/12/27 07:53:31;;;;;;;8.57;2.47;;;16.40;76.20;;;;;;4169509;28;20103;-50
2023/12/27 07:56:12;;;;;;;7.50;2.20;;;16.40;75.60;;;;;;4160908;28;20052;-48
2023/12/27 07:58:53;;;;;;;6.15;2.50;;;16.40;75.00;;;;;;4168412;28;20059;-44
2023/12/27 08:01:34;;;;;;;;;;;16.40;74.60;;;;;;4154255;28;20392;-44
2023/12/27 08:04:17;;;;;;;6.95;2.20;;;16.40;74.60;;;;;;4170756;28;19928;-48
2023/12/27 08:07:00;;;;;;;4.90;2.25;;;16.40;74.30;;;;;;4182929;28;21969;-44
2023/12/27 08:09:41;;;;;;;7.55;2.50;;;16.50;73.90;;;;;;4173296;28;20052;-43
2023/12/27 08:12:22;;;;;;;6.18;1.95;;;16.50;73.40;;;;;;4173740;28;20056;-46
2023/12/27 08:15:07;;;;;;;6.47;2.15;;;16.60;73.60;;;;;;4170818;28;20051;-49
2023/12/27 08:17:48;;;;;;;5.00;2.05;;;16.60;73.50;;;;;;4155663;28;20052;-44
2023/12/27 08:20:30;;;;;;;5.40;2.00;;;16.60;74.00;;;;;;4173162;28;20117;-46
2023/12/27 08:23:13;;;;;;;4.78;1.83;;;16.60;73.20;;;;;;4185750;28;20605;-48
2023/12/27 08:25:54;;;;;;;7.28;2.15;;;16.60;73.40;;;;;;4164702;28;20160;-44
2023/12/27 08:28:35;;;;;;;2.58;1.95;;;16.60;73.50;;;;;;4186868;28;20133;-46
2023/12/27 08:31:16;;;;;;;;;;;16.50;73.30;;;;;;4187104;28;20087;-47
2023/12/27 08:34:02;;;;;;;8.75;1.83;;;16.50;73.30;;;;;;4186654;28;19935;-43
2023/12/27 08:36:45;;;;;;;7.43;2.20;;;16.50;73.10;;;;;;4175526;28;20490;-48
2023/12/27 08:39:26;;;;;;;4.38;1.60;;;16.50;73.40;;;;;;4180079;28;20051;-43
2023/12/27 08:42:07;;;;;;;5.70;2.35;;;16.40;73.40;;;;;;4186425;28;20056;-47
2023/12/27 08:44:48;;;;;;;;;;;16.30;74.00;;;;;;4187156;28;20074;-48
2023/12/27 08:47:29;;;;;;;4.57;2.13;;;16.30;74.30;;;;;;4186033;28;19931;-49
2023/12/27 08:50:11;;;;;;;7.13;2.55;;;16.20;74.30;;;;;;4187259;28;20051;-46
2023/12/27 08:52:53;;;;;;;4.10;1.80;;;16.30;74.40;;;;;;4185344;28;20047;-48
2023/12/27 08:55:34;;;;;;;8.73;2.55;;;16.20;74.00;;;;;;4175380;28;20171;-50
2023/12/27 08:58:15;;;;;;;9.35;1.70;;;16.20;73.90;;;;;;4186886;28;20051;-48
2023/12/27 09:00:58;;;;;;;3.65;1.70;;;16.20;74.30;;;;;;4170381;28;20503;-44
2023/12/27 09:03:40;;;;;;;5.28;2.03;;;16.30;74.40;;;;;;4179475;28;20052;-47
2023/12/27 09:06:21;;;;;;;3.42;2.00;;;16.30;74.20;;;;;;4184056;28;20055;-43
2023/12/27 09:09:04;;;;;;;3.10;1.95;;;16.30;74.10;;;;;;4182491;28;20063;-45
2023/12/27 09:11:45;;;;;;;6.53;1.80;;;16.30;73.70;;;;;;4183299;28;20046;-46
2023/12/27 09:14:26;;;;;;;2.83;1.85;;;16.30;73.40;;;;;;4185546;28;20513;-49
2023/12/27 09:17:08;;;;;;;4.88;1.95;;;16.20;73.50;;;;;;4185576;28;20048;-44
2023/12/27 09:19:48;;;;;;;;;;;16.20;73.50;;;;;;4179122;28;20602;-48
2023/12/27 09:22:29;;;;;;;4.25;1.80;;;16.20;74.30;;;;;;4160327;28;20018;-45
2023/12/27 09:25:13;;;;;;;3.92;1.92;;;16.10;74.00;;;;;;4185313;28;20046;-45
2023/12/27 09:27:55;;;;;;;3.97;2.05;;;16.10;74.40;;;;;;4173428;28;20052;-44
2023/12/27 09:30:36;;;;;;;8.02;2.10;;;16.00;74.40;;;;;;4176301;28;20503;-44
2023/12/27 09:33:18;;;;;;;6.55;2.05;;;15.90;74.50;;;;;;4189084;28;20075;-46
2023/12/27 09:35:59;;;;;;;8.23;1.70;;;15.90;74.60;;;;;;4183504;28;20573;-44
2023/12/27 09:38:40;;;;;;;5.57;1.67;;;15.90;74.90;;;;;;4188728;28;20094;-45
2023/12/27 09:41:22;;;;;;;2.75;1.73;;;15.90;74.70;;;;;;4183210;28;20086;-44
2023/12/27 09:44:07;;;;;;;6.43;1.73;;;15.90;74.50;;;;;;4156590;28;20156;-44
2023/12/27 09:46:48;;;;;;;4.78;1.63;;;15.90;74.50;;;;;;4180144;28;20052;-45
2023/12/27 09:49:31;;;;;;;7.07;2.08;;;15.80;74.50;;;;;;4172142;28;20507;-47
2023/12/27 09:52:14;;;;;;;4.05;1.40;;;15.80;74.30;;;;;;4171883;28;20048;-46
2023/12/27 09:54:55;;;;;;;6.47;1.70;;;15.70;74.50;;;;;;4170878;28;20052;-46
2023/12/27 09:57:38;;;;;;;6.63;1.80;;;15.70;74.20;;;;;;4166216;28;20067;-55
2023/12/27 10:00:20;;;;;;;5.90;1.63;;;15.80;75.70;;;;;;4182408;28;20047;-57
2023/12/27 10:03:05;;;;;;;4.43;1.98;;;15.80;74.80;;;;;;4188581;28;20556;-53
2023/12/27 10:06:11;;;;;;;5.45;1.90;;;15.80;74.60;;;;;;4177253;28;20056;-54
2023/12/27 10:08:53;;;;;;;9.52;2.40;;;15.80;74.60;;;;;;4169393;28;20137;-56
2023/12/27 10:11:35;;;;;;;4.90;1.88;;;15.90;74.60;;;;;;4172890;28;20098;-55
2023/12/27 10:14:18;;;;;;;8.93;2.13;;;15.90;74.60;;;;;;4178549;28;20064;-56
2023/12/27 10:17:00;;;;;;;6.10;2.45;;;15.80;74.60;;;;;;4185357;28;20071;-53
2023/12/27 10:19:42;;;;;;;5.43;1.90;;;15.80;74.70;;;;;;4184551;28;20071;-56
2023/12/27 10:22:23;;;;;;;6.28;1.92;;;15.70;74.70;;;;;;4186050;28;20059;-55
2023/12/27 10:25:08;;;;;;;2.97;1.75;;;15.60;75.10;;;;;;4173111;28;20060;-56
2023/12/27 10:27:49;;;;;;;6.10;1.85;;;15.60;75.40;;;;;;4174915;28;20507;-56
2023/12/27 10:30:31;;;;;;;11.02;2.30;;;15.50;75.60;;;;;;4175366;28;20179;-54
2023/12/27 10:33:13;;;;;;;5.65;2.03;;;15.40;76.10;;;;;;4171993;28;20451;-55
2023/12/27 10:35:58;;;;;;;7.43;2.70;;;15.30;76.50;;;;;;4178564;28;20054;-44
2023/12/27 10:38:40;;;;;;;6.88;2.22;;;15.30;77.00;;;;;;4188142;28;20095;-54
2023/12/27 10:41:23;;;;;;;9.77;2.58;;;15.30;77.30;;;;;;4188425;28;20051;-52
2023/12/27 10:44:05;;;;;;;5.38;2.13;;;15.30;77.50;;;;;;4180796;28;20619;-55
2023/12/27 10:46:49;;;;;;;4.75;2.35;;;15.40;77.80;;;;;;4177217;28;20047;-50
2023/12/27 10:49:31;;;;;;;9.77;2.97;;;15.50;77.70;;;;;;4186972;28;20075;-55
2023/12/27 10:52:13;;;;;;;5.47;2.20;;;15.50;77.50;;;;;;4170727;28;20178;-54
2023/12/27 10:54:58;;;;;;;10.82;2.72;;;15.50;77.60;;;;;;4186321;28;20059;-55
2023/12/27 10:57:41;;;;;;;3.10;2.28;;;15.40;77.40;;;;;;4170550;28;20143;-55
2023/12/27 11:00:22;;;;;;;5.80;2.72;;;15.40;77.60;;;;;;4173314;28;20101;-45
2023/12/27 11:03:06;;;;;;;4.30;2.70;;;15.50;77.70;;;;;;4188097;28;20966;-46
2023/12/27 11:05:48;;;;;;;12.45;3.20;;;15.50;77.80;;;;;;4181993;28;20055;-45
2023/12/27 11:08:33;;;;;;;13.23;3.30;;;15.50;77.40;;;;;;4170742;28;20400;-49
2023/12/27 11:11:16;;;;;;;8.02;3.58;;;15.50;77.10;;;;;;4171418;28;20389;-45
2023/12/27 11:13:59;;;;;;;10.55;3.90;;;15.50;77.20;;;;;;4180698;28;20491;-47
2023/12/27 11:16:41;;;;;;;6.25;3.67;;;15.40;77.20;;;;;;4187109;28;20093;-44
2023/12/27 11:19:27;;;;;;;7.93;3.33;;;15.40;77.60;;;;;;4182726;28;20507;-50
2023/12/27 11:22:08;;;;;;;11.60;3.22;;;15.40;77.50;;;;;;4170561;28;20420;-53
2023/12/27 11:24:49;;;;;;;8.60;3.15;;;15.40;77.30;;;;;;4175330;28;20064;-54
2023/12/27 11:27:31;;;;;;;5.65;3.45;;;15.40;77.50;;;;;;4188360;28;20074;-51
2023/12/27 11:30:13;;;;;;;8.20;3.03;;;15.40;77.00;;;;;;4171270;28;20064;-52
2023/12/27 11:32:54;;;;;;;8.85;3.42;;;15.40;76.90;;;;;;4185409;28;20047;-53
2023/12/27 11:35:38;;;;;;;7.00;2.90;;;15.40;77.30;;;;;;4184529;28;21441;-52
2023/12/27 11:38:22;;;;;;;4.65;3.30;;;15.30;77.10;;;;;;4172087;28;20506;-56
2023/12/27 11:41:04;;;;;;;7.28;2.92;;;15.20;77.40;;;;;;4181111;28;20052;-53
2023/12/27 11:43:51;;;;;;;;;;;15.20;77.60;;;;;;4176310;28;20052;-51
2023/12/27 11:46:32;;;;;;;6.50;3.42;;;15.20;77.30;;;;;;4185968;28;19928;-53
2023/12/27 11:49:20;;;;;;;15.75;4.80;;;15.20;77.00;;;;;;4186103;28;20506;-54
2023/12/27 11:52:03;;;;;;;7.28;3.33;;;15.20;77.10;;;;;;4183144;28;20047;-51
2023/12/27 11:54:44;;;;;;;5.90;2.83;;;15.10;77.30;;;;;;4186064;28;20590;-51
2023/12/27 11:57:25;;;;;;;6.85;3.88;;;15.10;77.30;;;;;;4186672;28;20059;-54
2023/12/27 12:00:07;;;;;;;7.80;3.72;;;15.20;77.30;;;;;;4169977;28;20455;-53
2023/12/27 12:02:57;;;;;;;7.28;4.07;;;15.20;77.20;;;;;;4162872;28;20514;-45
2023/12/27 12:06:04;;;;;;;14.52;4.32;;;15.20;77.10;;;;;;4170852;28;20131;-43
2023/12/27 12:08:48;;;;;;;8.18;3.22;;;15.10;77.00;;;;;;4184544;28;20055;-44
2023/12/27 12:11:30;;;;;;;6.65;3.45;;;15.20;77.40;;;;;;4178057;28;20068;-49
2023/12/27 12:14:11;;;;;;;8.57;4.50;;;15.20;78.00;;;;;;4186885;28;20178;-47
2023/12/27 12:16:52;;;;;;;17.77;5.30;;;15.30;78.30;;;;;;4170147;28;20137;-45
2023/12/27 12:19:34;;;;;;;6.55;4.38;;;15.40;78.70;;;;;;4170630;28;20518;-48
2023/12/27 12:22:16;;;;;;;10.70;4.53;;;15.40;79.00;;;;;;4169872;28;20062;-49
2023/12/27 12:25:08;;;;;;;6.13;3.67;;;15.40;78.60;;;;;;4169762;28;20215;-55
2023/12/27 12:27:49;;;;;;;7.72;4.38;;;15.50;79.00;;;;;;4168174;28;20067;-46
2023/12/27 12:30:30;;;;;;;10.00;3.93;;;15.50;79.50;;;;;;4162359;28;20059;-50
2023/12/27 12:33:11;;;;;;;10.93;4.53;;;15.50;79.30;;;;;;4187474;28;20094;-48
2023/12/27 12:35:55;;;;;;;7.95;3.60;;;15.60;79.10;;;;;;4187285;28;20184;-45
2023/12/27 12:38:36;;;;;;;8.43;3.80;;;15.70;78.70;;;;;;4187688;28;20056;-47
2023/12/27 12:41:18;;;;;;;10.13;4.47;;;15.70;78.30;;;;;;4176762;28;20067;-47
2023/12/27 12:43:59;;;;;;;7.68;4.07;;;15.70;78.90;;;;;;4177050;28;20059;-50
2023/12/27 12:46:41;;;;;;;9.93;3.95;;;15.70;79.30;;;;;;4160211;28;20059;-49
2023/12/27 12:49:23;;;;;;;10.60;4.45;;;15.70;80.60;;;;;;4153892;28;20057;-48
2023/12/27 12:52:05;;;;;;;9.77;4.20;;;15.80;80.30;;;;;;4163906;28;20061;-45
2023/12/27 12:54:48;;;;;;;4.47;3.80;;;15.80;80.70;;;;;;4167849;28;20064;-48
2023/12/27 12:57:31;;;;;;;6.85;4.30;;;15.70;80.20;;;;;;4186156;28;20051;-56
2023/12/27 13:00:13;;;;;;;5.93;3.90;;;15.70;80.20;;;;;;4186147;28;20092;-58
2023/12/27 13:02:54;;;;;;;8.07;4.70;;;15.70;80.30;;;;;;4185547;28;20579;-57
2023/12/27 13:05:35;;;;;;;7.03;4.45;;;15.70;80.30;;;;;;4185303;28;20054;-51
2023/12/27 13:08:16;;;;;;;7.82;4.88;;;15.70;81.00;;;;;;4190027;28;20075;-56
2023/12/27 13:10:57;;;;;;;6.70;4.03;;;15.80;79.90;;;;;;4173283;28;20056;-58
2023/12/27 13:13:40;;;;;;;6.55;4.15;;;15.80;79.70;;;;;;4170970;28;20047;-56
2023/12/27 13:16:22;;;;;;;6.60;4.07;;;15.80;79.70;;;;;;4173386;28;20610;-56
2023/12/27 13:19:03;;;;;;;5.47;4.35;;;15.70;79.60;;;;;;4179803;28;20060;-49
2023/12/27 13:21:44;;;;;;;8.00;4.40;;;15.70;79.40;;;;;;4171524;28;20052;-50
2023/12/27 13:24:25;;;;;;;5.85;4.25;;;15.70;80.30;;;;;;4178706;28;20051;-50
2023/12/27 13:27:06;;;;;;;6.90;4.93;;;15.60;80.60;;;;;;4171684;28;20060;-50
2023/12/27 13:29:49;;;;;;;7.97;5.05;;;15.60;80.70;;;;;;4156399;28;20523;-50
2023/12/27 13:32:30;;;;;;;7.95;7.28;;;15.50;80.50;;;;;;4173764;28;20075;-50
2023/12/27 13:35:11;;;;;;;4.72;3.83;;;15.50;80.50;;;;;;4173199;28;20133;-50
2023/12/27 13:37:52;;;;;;;5.40;3.85;;;15.50;80.60;;;;;;4182347;28;20055;-49
2023/12/27 13:40:34;;;;;;;3.88;3.33;;;15.50;80.50;;;;;;4182721;28;20602;-50
2023/12/27 13:43:16;;;;;;;4.55;4.10;;;15.40;81.00;;;;;;4187681;28;20064;-46
2023/12/27 13:45:59;;;;;;;5.70;4.15;;;15.40;81.10;;;;;;4189343;28;20408;-47
2023/12/27 13:48:40;;;;;;;6.38;3.97;;;15.40;80.90;;;;;;4189708;28;20517;-49
2023/12/27 13:51:22;;;;;;;4.22;3.90;;;15.40;80.90;;;;;;4182621;28;20056;-46
2023/12/27 13:54:03;;;;;;;6.40;3.97;;;15.40;81.10;;;;;;4189237;28;20056;-45
2023/12/27 13:56:49;;;;;;;4.85;4.35;;;15.40;81.20;;;;;;4187999;28;20055;-46
2023/12/27 13:59:30;;;;;;;6.07;4.30;;;15.40;81.10;;;;;;4172636;28;20125;-50
2023/12/27 14:02:12;;;;;;;7.00;5.50;;;15.40;81.00;;;;;;4172920;28;20060;-47
2023/12/27 14:04:53;;;;;;;5.45;4.55;;;15.30;81.00;;;;;;4182817;28;20403;-45